KTOC

Toccoa Rg Letourneau Field Airport

Toccoa, Georgia, USA
METAR KTOC 191815Z AUTO 25003KT 10SM CLR 34/20 A3002 RMK AO2 T03380199
Observed Flight Rules
Sep-19 @ 18:15 UTC (33 minutes ago) Visual Flight Rules
Wind Visibility Clouds
250° at 3 knots 10 miles
  • Clear skies
Temperatures Readings
Current 34°C / 93°F
Dewpoint 20°C / 68°F
Humidity 44%
Altimeter 30.02" Hg
Pressure 1017 hPa
Elevation 304
METAR KTOC 191815Z AUTO 25003KT 10SM CLR 34/20 A3002 RMK AO2 T03380199
Observed Flight Rules
Sep-19 @ 18:15 UTC
(33 minutes ago)
VFR
Wind Visibility
250° at 3 knots 10 miles
Clouds
  • Clear skies
Temperature Dewpoint
34°C / 93°F 20°C / 68°F
Humidity Altimeter Pressure
44% 30.02" Hg 1017 hPa